Time;durP1;ratioP1;P1;durP2;ratioP2;P2;SDS_P1;SDS_P2;PMS_P1;PMS_P2;Temp;Humidity;BMP_temperature;BMP_pressure;BME280_temperature;BME280_humidity;BME280_pressure;Samples;Min_cycle;Max_cycle;Signal;HPM_P1;HPM_P2
2023/08/28 00:02:37;;;;;;;8.47;5.50;;;;;;;;;;6100678;29;20040;-60
2023/08/28 00:05:38;;;;;;;9.63;6.60;;;;;;;;;;6098959;29;20039;-57
2023/08/28 00:08:38;;;;;;;8.20;5.63;;;;;;;;;;6100897;29;20052;-60
2023/08/28 00:11:39;;;;;;;7.43;4.80;;;;;;;;;;6100046;29;20040;-61
2023/08/28 00:14:39;;;;;;;8.03;4.07;;;;;;;;;;6099938;29;20043;-60
2023/08/28 00:17:41;;;;;;;7.93;4.43;;;;;;;;;;6099061;29;20059;-61
2023/08/28 00:20:41;;;;;;;6.30;4.03;;;;;;;;;;6100496;29;20044;-59
2023/08/28 00:23:42;;;;;;;6.97;4.53;;;;;;;;;;6098664;29;20050;-61
2023/08/28 00:26:43;;;;;;;7.10;4.87;;;;;;;;;;6098215;29;20758;-59
2023/08/28 00:29:43;;;;;;;5.90;4.03;;;;;;;;;;6100403;29;20042;-61
2023/08/28 00:32:44;;;;;;;5.80;2.80;;;;;;;;;;6100691;29;20499;-60
2023/08/28 00:35:44;;;;;;;6.53;2.80;;;;;;;;;;6100588;29;20143;-60
2023/08/28 00:38:45;;;;;;;4.53;2.40;;;;;;;;;;6101428;29;20436;-62
2023/08/28 00:41:45;;;;;;;3.97;1.97;;;;;;;;;;6100856;29;20479;-59
2023/08/28 00:44:46;;;;;;;3.67;2.13;;;;;;;;;;6099960;29;20043;-60
2023/08/28 00:47:47;;;;;;;3.57;1.90;;;;;;;;;;6109283;29;20074;-59
2023/08/28 00:50:49;;;;;;;5.17;2.40;;;;;;;;;;6101359;29;20054;-61
2023/08/28 00:53:49;;;;;;;4.60;2.20;;;;;;;;;;6101800;29;20050;-60
2023/08/28 00:56:52;;;;;;;3.37;1.70;;;;;;;;;;6092132;29;20547;-60
2023/08/28 00:59:53;;;;;;;3.30;1.42;;;;;;;;;;6099813;29;20039;-60
2023/08/28 01:02:55;;;;;;;3.10;1.47;;;;;;;;;;6106500;29;20400;-60
2023/08/28 01:05:58;;;;;;;2.22;1.27;;;;;;;;;;6109655;29;20118;-61
2023/08/28 01:09:03;;;;;;;5.07;1.30;;;;;;;;;;6110561;29;20087;-61
2023/08/28 01:12:17;;;;;;;3.72;1.10;;;;;;;;;;6104527;29;20050;-59
2023/08/28 01:15:20;;;;;;;3.42;1.60;;;;;;;;;;6104186;29;20081;-60
2023/08/28 01:18:21;;;;;;;2.70;1.30;;;;;;;;;;6110956;29;20056;-61
2023/08/28 01:21:23;;;;;;;3.03;1.10;;;;;;;;;;6111886;29;20044;-58
2023/08/28 01:24:26;;;;;;;4.10;1.58;;;;;;;;;;6111167;29;20052;-60
2023/08/28 01:27:26;;;;;;;4.47;1.40;;;;;;;;;;6110804;29;20051;-60
2023/08/28 01:30:27;;;;;;;3.10;1.50;;;;;;;;;;6107732;29;20803;-60
2023/08/28 01:33:27;;;;;;;4.03;1.47;;;;;;;;;;6104538;29;20035;-60
2023/08/28 01:36:53;;;;;;;3.43;1.30;;;;;;;;;;6106454;29;20086;-60
2023/08/28 01:39:57;;;;;;;2.90;1.20;;;;;;;;;;6112503;29;20522;-60
2023/08/28 01:43:01;;;;;;;2.85;1.40;;;;;;;;;;6118650;29;20051;-60
2023/08/28 01:46:03;;;;;;;3.50;1.50;;;;;;;;;;6113143;29;20059;-58
2023/08/28 01:49:05;;;;;;;3.65;1.23;;;;;;;;;;6110828;29;21041;-60
2023/08/28 01:52:06;;;;;;;3.45;1.17;;;;;;;;;;6118499;29;20044;-61
2023/08/28 01:55:08;;;;;;;2.92;1.58;;;;;;;;;;6101130;29;20062;-60
2023/08/28 01:58:08;;;;;;;2.50;1.20;;;;;;;;;;6104208;29;20051;-61
2023/08/28 02:01:09;;;;;;;3.03;1.50;;;;;;;;;;6105342;29;20063;-62
2023/08/28 02:04:09;;;;;;;3.47;1.50;;;;;;;;;;6104053;29;20048;-60
2023/08/28 02:07:10;;;;;;;3.63;1.40;;;;;;;;;;6107664;29;20139;-61
2023/08/28 02:10:10;;;;;;;3.17;1.53;;;;;;;;;;6113748;29;20407;-61
2023/08/28 02:13:11;;;;;;;2.97;1.60;;;;;;;;;;6101541;29;20059;-61
2023/08/28 02:16:12;;;;;;;3.33;1.30;;;;;;;;;;6111183;29;20048;-61
2023/08/28 02:19:12;;;;;;;2.63;1.30;;;;;;;;;;6102718;29;20040;-61
2023/08/28 02:22:13;;;;;;;3.13;1.37;;;;;;;;;;6113122;29;20047;-61
2023/08/28 02:25:13;;;;;;;4.17;1.50;;;;;;;;;;6108851;29;20076;-62
2023/08/28 02:28:18;;;;;;;3.13;1.53;;;;;;;;;;6102288;29;20240;-62
2023/08/28 02:31:18;;;;;;;2.80;1.50;;;;;;;;;;6104355;29;20913;-61
2023/08/28 02:34:19;;;;;;;3.10;1.43;;;;;;;;;;6102152;29;20459;-61
2023/08/28 02:37:19;;;;;;;3.43;1.43;;;;;;;;;;6100765;29;20239;-61
2023/08/28 02:40:20;;;;;;;3.23;1.40;;;;;;;;;;6102257;29;20127;-61
2023/08/28 02:43:21;;;;;;;4.50;1.70;;;;;;;;;;6104460;29;20535;-60
2023/08/28 02:46:21;;;;;;;4.40;2.03;;;;;;;;;;6101271;29;20048;-61
2023/08/28 02:49:22;;;;;;;3.87;1.87;;;;;;;;;;6101638;29;20051;-61
2023/08/28 02:52:22;;;;;;;3.70;1.60;;;;;;;;;;6106654;29;20559;-60
2023/08/28 02:55:23;;;;;;;3.37;1.50;;;;;;;;;;6100722;29;20059;-60
2023/08/28 02:58:23;;;;;;;3.10;1.50;;;;;;;;;;6100698;29;20047;-61
2023/08/28 03:01:24;;;;;;;4.17;1.63;;;;;;;;;;6100570;29;20064;-61
2023/08/28 03:04:24;;;;;;;3.77;1.97;;;;;;;;;;6106607;29;20047;-61
2023/08/28 03:07:25;;;;;;;5.07;2.00;;;;;;;;;;6102590;29;20142;-61
2023/08/28 03:10:26;;;;;;;3.50;1.87;;;;;;;;;;6099119;29;20055;-60
2023/08/28 03:13:27;;;;;;;3.90;1.60;;;;;;;;;;6101908;29;20052;-60
2023/08/28 03:16:27;;;;;;;4.40;1.90;;;;;;;;;;6102595;29;20092;-61
2023/08/28 03:19:28;;;;;;;4.47;1.93;;;;;;;;;;6102091;29;20046;-61
2023/08/28 03:22:29;;;;;;;3.97;1.80;;;;;;;;;;6101224;29;20483;-61
2023/08/28 03:25:29;;;;;;;2.93;1.60;;;;;;;;;;6108207;29;20427;-61
2023/08/28 03:28:30;;;;;;;3.23;1.80;;;;;;;;;;6101989;29;20047;-61
2023/08/28 03:31:30;;;;;;;3.90;2.10;;;;;;;;;;6102255;29;20138;-61
2023/08/28 03:34:31;;;;;;;3.30;1.80;;;;;;;;;;6100950;29;20464;-62
2023/08/28 03:37:32;;;;;;;4.40;1.70;;;;;;;;;;6101279;29;20139;-62
2023/08/28 03:40:35;;;;;;;4.20;1.90;;;;;;;;;;6102429;29;20055;-61
2023/08/28 03:43:35;;;;;;;4.18;2.00;;;;;;;;;;6098653;29;20522;-61
2023/08/28 03:46:36;;;;;;;3.70;1.70;;;;;;;;;;6101368;29;20052;-61
2023/08/28 03:49:37;;;;;;;4.43;2.10;;;;;;;;;;6103457;29;20076;-61
2023/08/28 03:52:37;;;;;;;4.70;2.10;;;;;;;;;;6099868;29;20515;-61
2023/08/28 03:55:38;;;;;;;5.03;2.20;;;;;;;;;;6101776;29;20063;-60
2023/08/28 03:58:38;;;;;;;3.63;2.00;;;;;;;;;;6101937;29;20483;-61
2023/08/28 04:01:39;;;;;;;5.07;2.10;;;;;;;;;;6101344;29;20079;-61
2023/08/28 04:04:39;;;;;;;4.17;2.20;;;;;;;;;;6103988;29;20107;-60
2023/08/28 04:07:40;;;;;;;4.63;2.40;;;;;;;;;;6100218;29;20042;-61
2023/08/28 04:10:41;;;;;;;5.93;2.20;;;;;;;;;;6100106;29;20044;-61
2023/08/28 04:13:42;;;;;;;;;;;;;;;;;;6097626;29;20040;-59
2023/08/28 04:16:43;;;;;;;4.53;2.40;;;;;;;;;;6097638;29;19930;-61
2023/08/28 04:19:43;;;;;;;5.73;2.47;;;;;;;;;;6100741;29;20089;-60
2023/08/28 04:22:44;;;;;;;4.73;2.20;;;;;;;;;;6099529;29;20052;-60
2023/08/28 04:25:45;;;;;;;4.78;2.63;;;;;;;;;;6097483;29;20051;-61
2023/08/28 04:28:45;;;;;;;5.37;2.70;;;;;;;;;;6098322;29;20052;-60
2023/08/28 04:31:46;;;;;;;4.43;2.23;;;;;;;;;;6101788;29;20072;-61
2023/08/28 04:34:47;;;;;;;4.47;2.33;;;;;;;;;;6106081;29;20044;-59
2023/08/28 04:37:47;;;;;;;5.03;2.87;;;;;;;;;;6102274;29;21151;-56
2023/08/28 04:40:48;;;;;;;5.00;2.93;;;;;;;;;;6099189;29;20051;-59
2023/08/28 04:43:48;;;;;;;5.93;2.70;;;;;;;;;;6098652;29;20194;-57
2023/08/28 04:46:49;;;;;;;5.73;2.83;;;;;;;;;;6099276;29;20052;-58
2023/08/28 04:49:49;;;;;;;4.70;2.93;;;;;;;;;;6100993;29;20066;-57
2023/08/28 04:52:50;;;;;;;5.83;3.00;;;;;;;;;;6114975;29;20040;-59
2023/08/28 04:55:51;;;;;;;5.10;2.90;;;;;;;;;;6097015;29;20094;-56
2023/08/28 04:58:51;;;;;;;7.93;3.80;;;;;;;;;;6098565;29;20099;-61
2023/08/28 05:01:52;;;;;;;5.50;3.27;;;;;;;;;;6097837;29;20074;-57
2023/08/28 05:04:52;;;;;;;6.97;3.80;;;;;;;;;;6097155;29;20040;-58
2023/08/28 05:07:53;;;;;;;8.23;3.73;;;;;;;;;;6096984;29;20048;-59
2023/08/28 05:10:53;;;;;;;8.20;3.67;;;;;;;;;;6097017;29;20040;-57
2023/08/28 05:13:54;;;;;;;9.53;4.00;;;;;;;;;;6100440;29;20151;-57
2023/08/28 05:16:54;;;;;;;6.60;3.60;;;;;;;;;;6098114;29;20436;-59
2023/08/28 05:19:55;;;;;;;7.17;3.60;;;;;;;;;;6097106;29;20138;-57
2023/08/28 05:22:56;;;;;;;6.53;3.67;;;;;;;;;;6100187;29;20040;-59
2023/08/28 05:25:57;;;;;;;7.43;4.50;;;;;;;;;;6098303;29;20055;-57
2023/08/28 05:28:57;;;;;;;7.07;4.07;;;;;;;;;;6098962;29;20040;-55
2023/08/28 05:31:58;;;;;;;8.13;4.73;;;;;;;;;;6096427;29;20472;-58
2023/08/28 05:34:59;;;;;;;7.47;4.80;;;;;;;;;;6099171;29;20048;-59
2023/08/28 05:37:59;;;;;;;7.65;4.88;;;;;;;;;;6119072;29;20408;-58
2023/08/28 05:41:00;;;;;;;7.50;5.07;;;;;;;;;;6101297;29;20056;-60
2023/08/28 05:44:01;;;;;;;8.47;5.07;;;;;;;;;;6099293;29;20128;-56
2023/08/28 05:47:01;;;;;;;7.70;4.83;;;;;;;;;;6097909;29;20408;-59
2023/08/28 05:50:03;;;;;;;10.47;5.63;;;;;;;;;;6100611;29;20480;-57
2023/08/28 05:53:04;;;;;;;9.90;5.47;;;;;;;;;;6099468;29;20044;-59
2023/08/28 05:56:04;;;;;;;8.47;5.30;;;;;;;;;;6098032;29;20048;-57
2023/08/28 05:59:05;;;;;;;6.97;4.40;;;;;;;;;;6097676;29;20076;-59
2023/08/28 06:02:06;;;;;;;7.30;4.57;;;;;;;;;;6097183;29;20051;-58
2023/08/28 06:05:07;;;;;;;6.50;4.20;;;;;;;;;;6095161;29;20074;-58
2023/08/28 06:08:08;;;;;;;9.40;4.60;;;;;;;;;;6108834;29;20524;-58
2023/08/28 06:11:08;;;;;;;8.00;4.50;;;;;;;;;;6098881;29;20040;-57
2023/08/28 06:14:09;;;;;;;5.87;3.50;;;;;;;;;;6098368;29;20048;-58
2023/08/28 06:17:10;;;;;;;7.23;3.43;;;;;;;;;;6099339;29;20103;-58
2023/08/28 06:20:11;;;;;;;6.13;3.50;;;;;;;;;;6094745;29;20630;-60
2023/08/28 06:23:11;;;;;;;5.93;3.03;;;;;;;;;;6095724;29;20091;-58
2023/08/28 06:26:12;;;;;;;5.70;2.90;;;;;;;;;;6099953;29;20080;-57
2023/08/28 06:29:13;;;;;;;6.07;3.33;;;;;;;;;;6103238;29;20055;-58
2023/08/28 06:32:14;;;;;;;7.17;3.20;;;;;;;;;;6102180;29;20131;-58
2023/08/28 06:35:15;;;;;;;7.03;3.80;;;;;;;;;;6103160;29;20131;-58
2023/08/28 06:38:15;;;;;;;10.80;4.17;;;;;;;;;;6102731;29;20622;-58
2023/08/28 06:41:16;;;;;;;7.27;3.47;;;;;;;;;;6102451;29;20052;-59
2023/08/28 06:44:17;;;;;;;7.33;3.33;;;;;;;;;;6103141;29;20060;-59
2023/08/28 06:47:17;;;;;;;6.83;3.77;;;;;;;;;;6101689;29;20050;-57
2023/08/28 06:50:18;;;;;;;4.53;2.95;;;;;;;;;;6099345;29;20048;-57
2023/08/28 06:53:18;;;;;;;7.27;3.50;;;;;;;;;;6101270;29;20482;-58
2023/08/28 06:56:19;;;;;;;7.50;3.67;;;;;;;;;;6100957;29;20066;-58
2023/08/28 06:59:20;;;;;;;7.43;3.37;;;;;;;;;;6103970;29;20052;-57
2023/08/28 07:02:21;;;;;;;7.00;3.67;;;;;;;;;;6103820;29;20085;-57
2023/08/28 07:05:21;;;;;;;6.47;3.80;;;;;;;;;;6102101;29;20052;-60
2023/08/28 07:08:22;;;;;;;5.20;3.53;;;;;;;;;;6102071;29;20092;-55
2023/08/28 07:11:23;;;;;;;5.77;3.47;;;;;;;;;;6103861;29;22134;-59
2023/08/28 07:14:23;;;;;;;8.07;3.63;;;;;;;;;;6103198;29;20047;-58
2023/08/28 07:17:24;;;;;;;7.43;4.00;;;;;;;;;;6101237;29;20044;-57
2023/08/28 07:20:24;;;;;;;9.23;3.93;;;;;;;;;;6100811;29;20088;-58
2023/08/28 07:23:25;;;;;;;7.90;4.20;;;;;;;;;;6102684;29;20376;-60
2023/08/28 07:26:26;;;;;;;11.73;5.13;;;;;;;;;;6101440;29;20501;-59
2023/08/28 07:29:26;;;;;;;6.10;4.10;;;;;;;;;;6100185;29;20052;-58
2023/08/28 07:32:29;;;;;;;7.50;4.13;;;;;;;;;;6103067;29;20043;-57
2023/08/28 07:35:34;;;;;;;7.55;4.60;;;;;;;;;;6102015;29;20427;-58
2023/08/28 07:38:35;;;;;;;9.35;4.47;;;;;;;;;;6102159;29;20550;-58
2023/08/28 07:41:35;;;;;;;5.90;4.17;;;;;;;;;;6100222;29;20062;-56
2023/08/28 07:44:37;;;;;;;7.00;4.70;;;;;;;;;;6102159;29;20063;-58
2023/08/28 07:47:38;;;;;;;7.27;4.40;;;;;;;;;;6102365;29;20044;-60
2023/08/28 07:50:40;;;;;;;7.18;4.60;;;;;;;;;;6100103;29;20295;-60
2023/08/28 07:53:40;;;;;;;9.50;5.50;;;;;;;;;;6101808;29;20044;-59
2023/08/28 07:56:41;;;;;;;11.20;5.10;;;;;;;;;;6100381;29;20055;-59
2023/08/28 07:59:42;;;;;;;10.73;4.50;;;;;;;;;;6100298;29;20043;-59
2023/08/28 08:02:42;;;;;;;7.37;4.57;;;;;;;;;;6100707;29;20039;-58
2023/08/28 08:05:43;;;;;;;8.80;4.27;;;;;;;;;;6101642;29;20048;-60
2023/08/28 08:08:48;;;;;;;6.13;3.97;;;;;;;;;;6101027;29;20059;-61
2023/08/28 08:11:48;;;;;;;4.97;3.30;;;;;;;;;;6100775;29;20048;-60
2023/08/28 08:14:49;;;;;;;6.23;3.63;;;;;;;;;;6100736;29;20104;-58
2023/08/28 08:17:49;;;;;;;6.43;3.63;;;;;;;;;;6100282;29;20043;-56
2023/08/28 08:20:50;;;;;;;5.40;3.43;;;;;;;;;;6118373;29;20054;-57
2023/08/28 08:23:51;;;;;;;4.57;3.00;;;;;;;;;;6104482;29;20051;-58
2023/08/28 08:26:51;;;;;;;5.47;3.33;;;;;;;;;;6101152;29;20049;-59
2023/08/28 08:29:52;;;;;;;6.20;3.20;;;;;;;;;;6100298;29;20063;-60
2023/08/28 08:32:52;;;;;;;5.13;3.10;;;;;;;;;;6100268;29;20040;-61
2023/08/28 08:35:54;;;;;;;7.07;3.30;;;;;;;;;;6099934;29;20051;-60
2023/08/28 08:38:54;;;;;;;6.15;3.10;;;;;;;;;;6099810;29;20062;-59
2023/08/28 08:41:55;;;;;;;5.17;3.23;;;;;;;;;;6101963;29;20044;-60
2023/08/28 08:44:56;;;;;;;7.50;3.50;;;;;;;;;;6099829;29;20071;-57
2023/08/28 08:47:59;;;;;;;8.40;3.97;;;;;;;;;;6098060;29;20083;-58
2023/08/28 08:51:04;;;;;;;5.90;3.80;;;;;;;;;;6101197;29;20398;-58
2023/08/28 08:54:09;;;;;;;8.15;3.72;;;;;;;;;;6101451;29;20082;-60
2023/08/28 08:57:37;;;;;;;6.20;3.50;;;;;;;;;;6101754;29;20048;-57
2023/08/28 09:00:43;;;;;;;5.45;3.25;;;;;;;;;;6093165;29;20094;-59
2023/08/28 09:03:44;;;;;;;6.88;3.63;;;;;;;;;;6098372;29;20048;-60
2023/08/28 09:06:47;;;;;;;6.53;4.00;;;;;;;;;;6098587;29;20048;-60
2023/08/28 09:09:48;;;;;;;7.57;4.03;;;;;;;;;;6097567;29;20736;-58
2023/08/28 09:12:49;;;;;;;5.60;3.67;;;;;;;;;;6097399;29;20076;-61
2023/08/28 09:15:50;;;;;;;7.93;4.47;;;;;;;;;;6100900;29;20060;-61
2023/08/28 09:18:52;;;;;;;7.10;3.93;;;;;;;;;;6098414;29;20048;-59
2023/08/28 09:21:52;;;;;;;8.70;4.18;;;;;;;;;;6098044;29;20578;-57
2023/08/28 09:24:54;;;;;;;6.60;3.90;;;;;;;;;;6099931;29;20450;-59
2023/08/28 09:27:55;;;;;;;6.63;4.25;;;;;;;;;;6099943;29;20735;-57
2023/08/28 09:30:55;;;;;;;12.63;5.65;;;;;;;;;;6100647;29;20044;-55
2023/08/28 09:33:56;;;;;;;7.67;5.00;;;;;;;;;;6099896;29;20472;-58
2023/08/28 09:37:00;;;;;;;7.27;4.20;;;;;;;;;;6098547;29;20048;-59
2023/08/28 09:40:01;;;;;;;11.75;6.35;;;;;;;;;;6097233;29;20047;-57
2023/08/28 09:43:12;;;;;;;10.30;6.53;;;;;;;;;;6100305;29;20063;-61
2023/08/28 09:46:13;;;;;;;6.45;4.03;;;;;;;;;;6100672;29;20048;-58
2023/08/28 09:49:14;;;;;;;7.30;4.07;;;;;;;;;;6101342;29;20109;-57
2023/08/28 09:52:22;;;;;;;8.10;4.47;;;;;;;;;;6097237;29;20135;-59
2023/08/28 09:55:23;;;;;;;9.10;4.20;;;;;;;;;;6099699;29;20058;-57
2023/08/28 09:58:28;;;;;;;8.97;4.77;;;;;;;;;;6099422;29;20498;-59
2023/08/28 10:01:33;;;;;;;7.15;4.70;;;;;;;;;;6103806;29;20482;-57
2023/08/28 10:04:35;;;;;;;7.20;4.47;;;;;;;;;;6122357;29;20414;-59
2023/08/28 10:07:39;;;;;;;8.13;4.53;;;;;;;;;;6104030;29;20040;-59
2023/08/28 10:10:48;;;;;;;6.40;4.22;;;;;;;;;;6104458;29;20521;-58
2023/08/28 10:13:49;;;;;;;9.27;4.53;;;;;;;;;;6115762;29;20127;-57
2023/08/28 10:16:57;;;;;;;6.60;4.22;;;;;;;;;;6113382;29;20614;-58
2023/08/28 10:20:00;;;;;;;8.60;4.65;;;;;;;;;;6109171;29;20056;-60
2023/08/28 10:23:03;;;;;;;8.80;4.85;;;;;;;;;;6103393;29;20052;-59
2023/08/28 10:26:05;;;;;;;7.75;4.50;;;;;;;;;;6116077;29;20574;-59
2023/08/28 10:29:06;;;;;;;7.55;5.00;;;;;;;;;;6119355;29;20064;-59
2023/08/28 10:32:08;;;;;;;8.55;5.75;;;;;;;;;;6113141;29;20469;-57
2023/08/28 10:35:10;;;;;;;9.05;5.97;;;;;;;;;;6102108;29;20098;-59
2023/08/28 10:38:11;;;;;;;9.02;6.32;;;;;;;;;;6102689;29;20062;-58
2023/08/28 10:41:12;;;;;;;10.77;6.50;;;;;;;;;;6086995;29;20043;-59
2023/08/28 10:44:13;;;;;;;11.07;6.55;;;;;;;;;;6116438;29;20058;-58
2023/08/28 10:47:18;;;;;;;11.95;6.65;;;;;;;;;;6110652;29;20666;-58
2023/08/28 10:50:19;;;;;;;12.35;7.15;;;;;;;;;;6109427;29;20577;-60
2023/08/28 10:53:22;;;;;;;14.63;6.90;;;;;;;;;;6104382;29;20043;-59
2023/08/28 10:56:22;;;;;;;16.80;7.57;;;;;;;;;;6112743;29;20448;-60
2023/08/28 10:59:25;;;;;;;14.37;7.70;;;;;;;;;;6100000;29;20419;-60
2023/08/28 11:03:08;;;;;;;9.93;6.97;;;;;;;;;;6102071;29;20047;-60
2023/08/28 11:06:37;;;;;;;13.65;6.20;;;;;;;;;;6101206;29;20054;-61
2023/08/28 11:09:38;;;;;;;11.40;6.45;;;;;;;;;;6099353;29;20062;-57
2023/08/28 11:12:49;;;;;;;9.37;5.90;;;;;;;;;;6112560;29;20047;-57
2023/08/28 11:16:02;;;;;;;7.68;5.18;;;;;;;;;;6108236;29;20044;-60
2023/08/28 11:19:02;;;;;;;8.57;4.40;;;;;;;;;;6112092;29;20051;-60
2023/08/28 11:22:03;;;;;;;8.63;4.93;;;;;;;;;;6107098;29;20799;-59
2023/08/28 11:25:09;;;;;;;12.43;5.43;;;;;;;;;;6110017;29;20051;-58
2023/08/28 11:28:31;;;;;;;9.63;6.22;;;;;;;;;;6110965;29;20506;-61
2023/08/28 11:31:33;;;;;;;11.63;6.15;;;;;;;;;;6107147;29;20500;-60
2023/08/28 11:34:34;;;;;;;11.55;7.00;;;;;;;;;;6105355;29;20047;-60
2023/08/28 11:37:45;;;;;;;12.93;6.70;;;;;;;;;;6108639;29;20111;-58
2023/08/28 11:40:46;;;;;;;9.45;6.60;;;;;;;;;;6109857;29;20046;-61
2023/08/28 11:43:46;;;;;;;9.70;6.50;;;;;;;;;;6109446;29;20047;-58
2023/08/28 11:46:47;;;;;;;10.03;5.97;;;;;;;;;;6112536;29;20063;-60
2023/08/28 11:49:48;;;;;;;10.13;6.17;;;;;;;;;;6107377;29;20047;-60
2023/08/28 11:52:50;;;;;;;8.87;5.70;;;;;;;;;;6093071;29;20058;-57
2023/08/28 11:55:50;;;;;;;11.68;6.32;;;;;;;;;;6108927;29;20402;-59
2023/08/28 11:58:54;;;;;;;8.63;5.60;;;;;;;;;;6112410;29;20055;-59
2023/08/28 12:01:55;;;;;;;10.27;5.90;;;;;;;;;;6108801;29;20055;-59
2023/08/28 12:04:56;;;;;;;12.18;6.65;;;;;;;;;;6107100;29;20044;-60
2023/08/28 12:07:59;;;;;;;11.13;6.57;;;;;;;;;;6111619;29;20521;-59
2023/08/28 12:11:00;;;;;;;8.05;5.80;;;;;;;;;;6109918;29;20527;-60
2023/08/28 12:14:16;;;;;;;7.73;5.40;;;;;;;;;;6111670;29;20048;-58
2023/08/28 12:17:26;;;;;;;18.02;6.80;;;;;;;;;;6108720;29;20063;-58
2023/08/28 12:20:30;;;;;;;10.77;6.13;;;;;;;;;;6106533;29;20142;-58
2023/08/28 12:23:31;;;;;;;9.05;5.55;;;;;;;;;;6109285;28;20059;-61
2023/08/28 12:26:33;;;;;;;7.70;5.50;;;;;;;;;;6108877;29;20103;-61
2023/08/28 12:29:34;;;;;;;9.70;5.53;;;;;;;;;;6107088;29;20043;-61
2023/08/28 12:32:35;;;;;;;8.10;4.77;;;;;;;;;;6107293;29;20052;-61
2023/08/28 12:35:37;;;;;;;10.10;4.90;;;;;;;;;;6108093;29;21171;-58
2023/08/28 12:38:46;;;;;;;7.55;4.30;;;;;;;;;;6109514;29;20692;-60
2023/08/28 12:41:54;;;;;;;8.32;4.72;;;;;;;;;;6107719;29;20043;-60
2023/08/28 12:44:56;;;;;;;11.93;5.65;;;;;;;;;;6109504;29;20059;-61
2023/08/28 12:47:57;;;;;;;7.30;4.88;;;;;;;;;;6110213;29;20672;-60
2023/08/28 12:50:57;;;;;;;6.50;4.30;;;;;;;;;;6104471;29;20044;-61
2023/08/28 12:53:58;;;;;;;8.60;4.63;;;;;;;;;;6110539;29;20066;-60
2023/08/28 12:56:58;;;;;;;5.93;4.30;;;;;;;;;;6109763;29;20082;-61
2023/08/28 12:59:59;;;;;;;9.03;5.17;;;;;;;;;;6107178;29;20132;-60
2023/08/28 13:03:00;;;;;;;7.37;4.87;;;;;;;;;;6110099;29;20070;-61
2023/08/28 13:06:01;;;;;;;7.67;4.37;;;;;;;;;;6109101;29;20051;-61
2023/08/28 13:09:03;;;;;;;7.28;4.20;;;;;;;;;;6106570;29;20051;-60
2023/08/28 13:12:04;;;;;;;6.35;4.75;;;;;;;;;;6103656;29;20047;-60
2023/08/28 13:15:05;;;;;;;6.53;4.87;;;;;;;;;;6103941;29;20050;-60
2023/08/28 13:18:07;;;;;;;15.25;5.55;;;;;;;;;;6107130;29;20186;-61
2023/08/28 13:21:09;;;;;;;6.28;4.45;;;;;;;;;;6107959;29;20474;-60
2023/08/28 13:24:10;;;;;;;8.57;4.40;;;;;;;;;;6107009;29;20054;-61
2023/08/28 13:27:11;;;;;;;6.23;4.53;;;;;;;;;;6107917;29;20047;-61
2023/08/28 13:30:13;;;;;;;6.20;4.72;;;;;;;;;;6105327;29;20809;-61
2023/08/28 13:33:14;;;;;;;6.82;4.95;;;;;;;;;;6106737;28;20055;-57
2023/08/28 13:36:16;;;;;;;7.80;5.17;;;;;;;;;;6113114;29;20103;-60
2023/08/28 13:39:17;;;;;;;6.65;5.15;;;;;;;;;;6113497;29;20054;-60
2023/08/28 13:42:17;;;;;;;6.70;5.60;;;;;;;;;;6108862;29;20596;-61
2023/08/28 13:45:18;;;;;;;9.27;5.90;;;;;;;;;;6114791;29;20048;-60
2023/08/28 13:48:19;;;;;;;8.90;6.17;;;;;;;;;;6113790;29;20091;-60
2023/08/28 13:51:19;;;;;;;10.87;5.87;;;;;;;;;;6112947;29;20035;-60
2023/08/28 13:54:20;;;;;;;9.07;6.40;;;;;;;;;;6112119;29;20590;-61
2023/08/28 13:57:21;;;;;;;10.60;7.30;;;;;;;;;;6114350;29;20411;-61
2023/08/28 14:00:22;;;;;;;11.50;7.60;;;;;;;;;;6108702;29;20067;-60
2023/08/28 14:03:23;;;;;;;10.93;7.27;;;;;;;;;;6112104;29;20062;-60
2023/08/28 14:06:23;;;;;;;14.48;8.00;;;;;;;;;;6114031;29;20059;-60
2023/08/28 14:09:25;;;;;;;11.03;7.77;;;;;;;;;;6116507;29;20326;-60
2023/08/28 14:12:25;;;;;;;9.48;7.35;;;;;;;;;;6109347;29;20052;-60
2023/08/28 14:15:26;;;;;;;11.23;7.53;;;;;;;;;;6114606;29;20059;-60
2023/08/28 14:18:26;;;;;;;10.93;7.47;;;;;;;;;;6113338;29;20058;-61
2023/08/28 14:21:27;;;;;;;11.17;7.87;;;;;;;;;;6110998;29;20043;-60
2023/08/28 14:24:27;;;;;;;9.77;7.60;;;;;;;;;;6112915;29;20075;-61
2023/08/28 14:27:28;;;;;;;10.30;8.23;;;;;;;;;;6112923;29;20048;-60
2023/08/28 14:30:29;;;;;;;12.10;8.10;;;;;;;;;;6110903;29;20529;-60
2023/08/28 14:33:30;;;;;;;12.90;7.80;;;;;;;;;;6111909;29;20048;-61
2023/08/28 14:36:30;;;;;;;13.30;7.97;;;;;;;;;;6110732;29;20052;-61
2023/08/28 14:39:31;;;;;;;14.17;8.27;;;;;;;;;;6109725;29;20051;-61
2023/08/28 14:42:32;;;;;;;14.33;7.47;;;;;;;;;;6107748;29;20458;-61
2023/08/28 14:45:33;;;;;;;11.30;7.53;;;;;;;;;;6110693;29;20302;-59
2023/08/28 14:48:34;;;;;;;9.80;7.07;;;;;;;;;;6110404;29;20677;-61
2023/08/28 14:51:34;;;;;;;11.70;7.43;;;;;;;;;;6108602;29;20086;-60
2023/08/28 14:54:35;;;;;;;11.23;6.73;;;;;;;;;;6110118;29;20075;-61
2023/08/28 14:57:35;;;;;;;9.27;7.00;;;;;;;;;;6113592;29;20059;-61
2023/08/28 15:00:36;;;;;;;9.90;6.93;;;;;;;;;;6109814;29;20047;-59
2023/08/28 15:03:37;;;;;;;13.27;7.13;;;;;;;;;;6108967;29;20818;-62
2023/08/28 15:06:38;;;;;;;10.33;6.70;;;;;;;;;;6111057;29;20062;-62
2023/08/28 15:09:38;;;;;;;10.13;6.27;;;;;;;;;;6111639;29;20367;-62
2023/08/28 15:12:39;;;;;;;10.73;6.80;;;;;;;;;;6108763;29;20073;-60
2023/08/28 15:15:41;;;;;;;12.57;6.40;;;;;;;;;;6108717;29;21352;-59
2023/08/28 15:18:42;;;;;;;9.70;6.35;;;;;;;;;;6110438;29;20059;-62
2023/08/28 15:21:42;;;;;;;9.47;6.30;;;;;;;;;;6112180;29;20403;-62
2023/08/28 15:24:43;;;;;;;10.87;6.00;;;;;;;;;;6110970;29;20110;-58
2023/08/28 15:27:43;;;;;;;11.40;7.00;;;;;;;;;;6111334;29;20059;-61
2023/08/28 15:30:44;;;;;;;11.47;6.97;;;;;;;;;;6107301;29;20060;-61
2023/08/28 15:33:44;;;;;;;12.67;7.40;;;;;;;;;;6102049;29;20816;-62
2023/08/28 15:36:45;;;;;;;10.67;7.00;;;;;;;;;;6121577;29;20729;-61
2023/08/28 15:39:46;;;;;;;9.00;5.63;;;;;;;;;;6109182;29;20056;-59
2023/08/28 15:42:47;;;;;;;11.37;5.90;;;;;;;;;;6126186;29;20076;-61
2023/08/28 15:45:51;;;;;;;10.75;6.10;;;;;;;;;;6111805;29;20063;-55
2023/08/28 15:48:52;;;;;;;9.57;6.18;;;;;;;;;;6117498;29;20110;-60
2023/08/28 15:51:52;;;;;;;9.80;5.83;;;;;;;;;;6119315;29;20052;-62
2023/08/28 15:54:55;;;;;;;9.50;6.00;;;;;;;;;;6119154;29;20232;-62
2023/08/28 15:57:55;;;;;;;12.73;6.47;;;;;;;;;;6118288;28;20055;-60
2023/08/28 16:00:59;;;;;;;11.30;5.83;;;;;;;;;;6105783;29;20479;-61
2023/08/28 16:03:59;;;;;;;8.50;5.38;;;;;;;;;;6108064;29;20146;-61
2023/08/28 16:07:00;;;;;;;10.23;5.57;;;;;;;;;;6108637;29;20269;-60
2023/08/28 16:10:01;;;;;;;11.77;5.43;;;;;;;;;;6107498;29;20063;-61
2023/08/28 16:13:01;;;;;;;9.45;5.50;;;;;;;;;;6106862;29;20083;-59
2023/08/28 16:16:02;;;;;;;8.40;5.50;;;;;;;;;;6107768;29;20056;-59
2023/08/28 16:19:03;;;;;;;8.33;6.13;;;;;;;;;;6109395;29;20150;-62
2023/08/28 16:22:03;;;;;;;8.70;5.87;;;;;;;;;;6105475;29;20058;-60
2023/08/28 16:25:05;;;;;;;9.37;5.80;;;;;;;;;;6106462;29;20491;-61
2023/08/28 16:28:09;;;;;;;11.17;6.20;;;;;;;;;;6105439;29;20061;-61
2023/08/28 16:31:10;;;;;;;8.88;5.50;;;;;;;;;;6105908;29;20306;-60
2023/08/28 16:34:10;;;;;;;10.23;5.73;;;;;;;;;;6108112;29;20043;-61
2023/08/28 16:37:11;;;;;;;9.80;5.93;;;;;;;;;;6107363;29;20055;-62
2023/08/28 16:40:11;;;;;;;9.50;5.80;;;;;;;;;;6104010;29;20047;-61
2023/08/28 16:43:12;;;;;;;9.80;6.13;;;;;;;;;;6106034;29;20066;-61
2023/08/28 16:46:13;;;;;;;10.20;6.53;;;;;;;;;;6107437;29;20050;-62
2023/08/28 16:49:14;;;;;;;10.43;6.30;;;;;;;;;;6106756;29;20150;-62
2023/08/28 16:52:14;;;;;;;10.03;6.27;;;;;;;;;;6106930;29;20609;-60
2023/08/28 16:55:15;;;;;;;7.80;5.93;;;;;;;;;;6106000;29;20131;-60
2023/08/28 16:58:15;;;;;;;12.33;6.57;;;;;;;;;;6108642;29;20051;-62
2023/08/28 17:01:16;;;;;;;13.97;7.30;;;;;;;;;;6106697;29;20166;-60
2023/08/28 17:04:17;;;;;;;11.80;7.07;;;;;;;;;;6105555;29;20047;-59
2023/08/28 17:07:18;;;;;;;12.97;7.57;;;;;;;;;;6108376;29;20066;-61
2023/08/28 17:10:18;;;;;;;13.60;7.43;;;;;;;;;;6084406;29;21334;-61
2023/08/28 17:13:19;;;;;;;13.87;7.53;;;;;;;;;;6107192;29;20059;-64
2023/08/28 17:16:19;;;;;;;13.23;7.80;;;;;;;;;;6105642;29;20059;-62
2023/08/28 17:19:20;;;;;;;12.47;8.00;;;;;;;;;;6106582;29;20146;-60
2023/08/28 17:22:20;;;;;;;13.87;8.07;;;;;;;;;;6104427;29;20039;-61
2023/08/28 17:25:21;;;;;;;14.60;8.30;;;;;;;;;;6106167;29;20060;-62
2023/08/28 17:28:22;;;;;;;14.50;8.07;;;;;;;;;;6105123;29;20046;-61
2023/08/28 17:31:23;;;;;;;14.40;9.80;;;;;;;;;;6105139;29;20111;-61
2023/08/28 17:34:23;;;;;;;13.73;9.37;;;;;;;;;;6104629;29;20047;-61
2023/08/28 17:37:24;;;;;;;17.87;10.30;;;;;;;;;;6102469;29;20499;-61
2023/08/28 17:40:24;;;;;;;15.40;9.70;;;;;;;;;;6103732;29;20423;-61
2023/08/28 17:43:25;;;;;;;15.30;9.90;;;;;;;;;;6091460;29;20067;-60
2023/08/28 17:46:26;;;;;;;15.90;10.30;;;;;;;;;;6079412;29;20049;-61
2023/08/28 17:49:27;;;;;;;14.50;9.97;;;;;;;;;;6086248;29;20506;-61
2023/08/28 17:52:27;;;;;;;19.07;10.47;;;;;;;;;;6083989;29;20048;-58
2023/08/28 17:55:29;;;;;;;15.83;10.50;;;;;;;;;;6085910;29;20056;-60
2023/08/28 17:58:29;;;;;;;15.93;10.10;;;;;;;;;;6083044;29;20048;-60
2023/08/28 18:01:30;;;;;;;18.73;11.13;;;;;;;;;;6067036;29;20143;-60
2023/08/28 18:04:31;;;;;;;17.83;10.98;;;;;;;;;;6085371;29;20047;-59
2023/08/28 18:07:31;;;;;;;18.07;11.00;;;;;;;;;;6085270;29;20056;-61